Time;durP1;ratioP1;P1;durP2;ratioP2;P2;SDS_P1;SDS_P2;PMS_P1;PMS_P2;Temp;Humidity;BMP_temperature;BMP_pressure;BME280_temperature;BME280_humidity;BME280_pressure;Samples;Min_cycle;Max_cycle;Signal;HPM_P1;HPM_P2
2022/08/07 00:01:50;;;;;;;4.90;4.40;;;24.00;1.00;;;;;;5016312;28;20033;-77
2022/08/07 00:04:16;;;;;;;4.15;3.85;;;24.00;1.00;;;;;;5016339;28;20034;-77
2022/08/07 00:06:42;;;;;;;4.57;3.90;;;24.00;1.00;;;;;;5015935;28;20030;-77
2022/08/07 00:09:08;;;;;;;4.65;4.35;;;23.90;1.00;;;;;;5016239;28;20026;-77
2022/08/07 00:11:33;;;;;;;5.03;4.28;;;23.80;1.00;;;;;;5015971;28;20022;-77
2022/08/07 00:13:59;;;;;;;6.63;4.10;;;23.60;1.00;;;;;;5016186;28;20030;-77
2022/08/07 00:16:25;;;;;;;5.55;4.38;;;23.70;1.00;;;;;;5015991;28;20037;-77
2022/08/07 00:18:50;;;;;;;4.32;4.03;;;23.80;1.00;;;;;;5015801;28;20030;-76
2022/08/07 00:21:16;;;;;;;5.38;4.15;;;23.60;1.00;;;;;;5015546;28;20029;-76
2022/08/07 00:23:42;;;;;;;4.70;4.03;;;23.60;1.00;;;;;;5015742;28;20026;-77
2022/08/07 00:26:09;;;;;;;5.25;4.05;;;23.60;1.00;;;;;;5014123;28;20030;-77
2022/08/07 00:28:35;;;;;;;4.38;3.97;;;23.60;1.00;;;;;;5022343;28;20026;-77
2022/08/07 00:31:03;;;;;;;4.60;4.20;;;23.60;1.00;;;;;;5034180;28;20849;-77
2022/08/07 00:33:29;;;;;;;4.70;4.30;;;23.70;1.00;;;;;;5035802;28;20026;-77
2022/08/07 00:35:55;;;;;;;4.53;4.13;;;23.70;1.00;;;;;;5035175;28;20421;-77
2022/08/07 00:38:21;;;;;;;6.18;4.10;;;23.70;1.00;;;;;;5035293;28;20148;-76
2022/08/07 00:40:47;;;;;;;4.93;4.43;;;23.70;1.00;;;;;;5035126;28;20060;-77
2022/08/07 00:43:13;;;;;;;4.75;4.30;;;23.40;1.00;;;;;;5035206;28;20485;-76
2022/08/07 00:45:40;;;;;;;4.20;3.90;;;23.30;1.00;;;;;;5035307;28;20029;-77
2022/08/07 00:48:07;;;;;;;4.78;3.88;;;23.30;1.00;;;;;;5035233;28;20025;-77
2022/08/07 00:50:33;;;;;;;4.93;4.30;;;23.30;1.00;;;;;;5035602;28;20108;-77
2022/08/07 00:52:58;;;;;;;4.60;4.20;;;23.30;1.00;;;;;;5035048;28;20109;-77
2022/08/07 00:55:24;;;;;;;4.55;4.15;;;23.40;1.00;;;;;;5034876;28;20030;-77
2022/08/07 00:57:50;;;;;;;5.28;4.68;;;23.20;1.00;;;;;;5035004;28;20112;-76
2022/08/07 01:00:18;;;;;;;4.82;4.32;;;23.20;1.00;;;;;;5034910;28;20032;-76
2022/08/07 01:02:44;;;;;;;4.45;4.10;;;23.20;1.00;;;;;;5034664;28;20112;-77
2022/08/07 01:05:10;;;;;;;4.65;4.20;;;23.20;1.00;;;;;;5034831;28;20474;-76
2022/08/07 01:07:36;;;;;;;4.53;4.22;;;23.10;1.00;;;;;;5035032;28;20036;-77
2022/08/07 01:10:02;;;;;;;5.13;4.22;;;23.20;1.00;;;;;;5033999;28;20030;-77
2022/08/07 01:12:28;;;;;;;4.68;4.25;;;23.10;1.00;;;;;;5034770;28;20025;-77
2022/08/07 01:14:56;;;;;;;3.97;3.67;;;23.10;1.00;;;;;;5034447;28;20058;-77
2022/08/07 01:17:22;;;;;;;4.15;3.75;;;23.10;1.00;;;;;;5034341;28;20076;-77
2022/08/07 01:19:48;;;;;;;4.82;3.75;;;23.20;1.00;;;;;;5034582;28;20034;-76
2022/08/07 01:22:15;;;;;;;4.18;3.80;;;23.10;1.00;;;;;;5034626;28;20036;-77
2022/08/07 01:24:41;;;;;;;4.30;4.00;;;23.10;1.00;;;;;;5034401;28;20018;-77
2022/08/07 01:27:07;;;;;;;4.00;3.70;;;23.20;1.00;;;;;;5034262;28;20508;-77
2022/08/07 01:29:33;;;;;;;4.35;3.95;;;22.90;1.00;;;;;;5049264;28;20040;-77
2022/08/07 01:31:59;;;;;;;5.82;3.90;;;22.80;1.00;;;;;;5044426;28;20025;-77
2022/08/07 01:34:25;;;;;;;4.38;3.72;;;23.00;1.00;;;;;;5034235;28;20103;-76
2022/08/07 01:36:51;;;;;;;3.40;3.10;;;22.90;1.00;;;;;;5032769;28;20410;-77
2022/08/07 01:39:17;;;;;;;4.53;3.80;;;22.90;1.00;;;;;;5034110;28;20022;-76
2022/08/07 01:41:44;;;;;;;5.28;3.28;;;22.90;1.00;;;;;;5034161;28;20030;-77
2022/08/07 01:44:11;;;;;;;4.72;3.10;;;22.80;1.00;;;;;;5033930;28;20029;-77
2022/08/07 01:46:38;;;;;;;5.13;3.20;;;22.80;1.00;;;;;;5034154;28;20022;-76
2022/08/07 01:49:04;;;;;;;4.30;3.08;;;22.80;1.00;;;;;;5034137;28;20034;-77
2022/08/07 01:51:31;;;;;;;3.88;3.40;;;22.90;1.00;;;;;;5034045;28;20083;-76
2022/08/07 01:54:00;;;;;;;3.88;3.58;;;22.80;1.00;;;;;;5034180;28;20101;-77
2022/08/07 01:56:32;;;;;;;3.80;3.50;;;22.80;1.00;;;;;;5033866;28;20033;-76
2022/08/07 01:59:06;;;;;;;5.85;3.80;;;22.70;1.00;;;;;;5033822;28;20552;-77
2022/08/07 02:01:36;;;;;;;3.35;2.97;;;22.60;1.00;;;;;;5032185;28;20437;-76
2022/08/07 02:04:10;;;;;;;4.70;3.20;;;22.40;1.00;;;;;;5033104;28;20025;-77
2022/08/07 02:06:38;;;;;;;3.58;3.05;;;22.60;1.00;;;;;;5033719;28;20030;-76
2022/08/07 02:09:06;;;;;;;3.50;3.20;;;22.50;1.00;;;;;;5033630;28;20029;-76
2022/08/07 02:11:40;;;;;;;3.22;2.92;;;22.40;1.00;;;;;;5033421;28;20109;-76
2022/08/07 02:14:07;;;;;;;3.38;3.00;;;22.60;1.00;;;;;;5033534;28;20036;-77
2022/08/07 02:16:34;;;;;;;4.10;3.03;;;22.60;1.00;;;;;;5033463;28;20040;-77
2022/08/07 02:19:06;;;;;;;4.30;3.10;;;22.40;1.00;;;;;;5033567;28;20021;-76
2022/08/07 02:21:34;;;;;;;3.92;3.05;;;22.40;1.00;;;;;;5032434;28;20029;-76
2022/08/07 02:24:01;;;;;;;3.83;2.95;;;22.20;1.00;;;;;;5033263;28;20022;-76
2022/08/07 02:26:28;;;;;;;3.70;2.83;;;22.00;1.00;;;;;;5033177;28;20086;-76
2022/08/07 02:28:55;;;;;;;3.17;2.88;;;22.00;1.00;;;;;;5033226;28;20032;-77
2022/08/07 02:31:22;;;;;;;3.80;2.95;;;21.90;1.00;;;;;;5032817;28;20057;-76
2022/08/07 02:33:50;;;;;;;4.63;3.10;;;22.00;1.00;;;;;;5033444;28;20029;-76
2022/08/07 02:36:17;;;;;;;3.28;2.90;;;22.20;1.00;;;;;;5033018;28;20490;-76
2022/08/07 02:38:44;;;;;;;6.53;3.38;;;22.20;1.00;;;;;;5033133;28;20021;-77
2022/08/07 02:41:11;;;;;;;3.10;2.85;;;22.10;1.00;;;;;;5033067;28;20052;-76
2022/08/07 02:43:39;;;;;;;3.42;3.10;;;21.90;1.00;;;;;;5033180;28;20398;-77
2022/08/07 02:46:07;;;;;;;4.57;3.00;;;21.80;1.00;;;;;;5032571;28;20030;-77
2022/08/07 02:48:33;;;;;;;3.17;2.88;;;21.70;1.00;;;;;;5033058;28;20029;-76
2022/08/07 02:51:06;;;;;;;3.40;3.10;;;21.80;1.00;;;;;;5032639;28;20024;-76
2022/08/07 02:53:34;;;;;;;3.28;3.00;;;21.50;1.00;;;;;;5033034;28;20039;-76
2022/08/07 02:56:03;;;;;;;3.53;3.20;;;21.70;1.00;;;;;;5032722;28;20117;-77
2022/08/07 02:58:30;;;;;;;4.00;3.10;;;21.80;1.00;;;;;;5032942;28;20457;-77
2022/08/07 03:00:57;;;;;;;3.47;2.92;;;21.80;1.00;;;;;;5032651;28;20075;-77
2022/08/07 03:03:26;;;;;;;3.35;2.90;;;21.90;1.00;;;;;;5032668;28;20539;-76
2022/08/07 03:05:53;;;;;;;3.50;2.97;;;21.90;1.00;;;;;;5032620;28;20124;-76
2022/08/07 03:08:20;;;;;;;3.13;2.78;;;21.90;1.00;;;;;;5032502;28;20022;-76
2022/08/07 03:10:46;;;;;;;4.30;3.00;;;21.90;1.00;;;;;;5032505;28;20044;-77
2022/08/07 03:13:16;;;;;;;4.43;3.13;;;21.90;1.00;;;;;;5032157;28;20029;-77
2022/08/07 03:15:43;;;;;;;2.90;2.63;;;21.90;1.00;;;;;;5032708;28;20525;-76
2022/08/07 03:18:10;;;;;;;3.30;3.00;;;21.90;1.00;;;;;;5032407;28;20061;-76
2022/08/07 03:20:36;;;;;;;3.08;2.67;;;21.80;1.00;;;;;;5032368;28;20028;-76
2022/08/07 03:23:02;;;;;;;3.53;3.03;;;21.70;1.00;;;;;;5032595;28;20034;-77
2022/08/07 03:25:30;;;;;;;3.70;3.38;;;21.70;1.00;;;;;;5032671;28;20025;-76
2022/08/07 03:27:56;;;;;;;3.55;2.83;;;21.80;1.00;;;;;;5031811;28;20558;-76
2022/08/07 03:30:23;;;;;;;3.47;3.17;;;21.70;1.00;;;;;;5032315;28;20025;-76
2022/08/07 03:32:51;;;;;;;3.20;3.00;;;21.80;1.00;;;;;;5031697;28;20068;-76
2022/08/07 03:35:22;;;;;;;3.60;3.30;;;21.70;1.00;;;;;;5032538;28;20478;-76
2022/08/07 03:37:56;;;;;;;4.82;3.17;;;21.70;1.00;;;;;;5032272;28;20040;-76
2022/08/07 03:40:29;;;;;;;3.20;2.92;;;21.80;1.00;;;;;;5032114;28;20087;-76
2022/08/07 03:42:56;;;;;;;5.00;3.50;;;21.70;1.00;;;;;;5031308;28;20524;-77
2022/08/07 03:45:25;;;;;;;3.60;3.25;;;21.70;1.00;;;;;;5032369;28;20021;-76
2022/08/07 03:47:51;;;;;;;5.45;3.45;;;21.70;1.00;;;;;;5032363;28;20026;-77
2022/08/07 03:50:23;;;;;;;4.32;3.10;;;21.60;1.00;;;;;;5032012;28;20021;-76
2022/08/07 03:52:52;;;;;;;3.83;3.42;;;21.70;1.00;;;;;;5032346;28;20036;-77
2022/08/07 03:55:18;;;;;;;5.57;3.25;;;21.60;1.00;;;;;;5031839;28;20112;-77
2022/08/07 03:57:45;;;;;;;3.58;3.28;;;21.40;1.00;;;;;;5031651;28;20068;-76
2022/08/07 04:00:11;;;;;;;3.40;3.10;;;21.40;1.00;;;;;;5031969;28;20048;-76
2022/08/07 04:02:37;;;;;;;4.25;3.40;;;21.50;1.00;;;;;;5031953;28;20057;-75
2022/08/07 04:05:04;;;;;;;3.97;3.40;;;21.50;1.00;;;;;;5031887;28;20025;-77
2022/08/07 04:07:31;;;;;;;3.50;3.20;;;21.30;1.00;;;;;;5031817;28;20038;-76
2022/08/07 04:09:57;;;;;;;3.65;3.30;;;21.40;1.00;;;;;;5032514;28;20478;-76
2022/08/07 04:12:23;;;;;;;3.60;3.30;;;21.20;1.00;;;;;;5031649;28;20040;-76
2022/08/07 04:14:49;;;;;;;4.40;3.50;;;21.10;1.00;;;;;;5031759;28;20022;-76
2022/08/07 04:17:15;;;;;;;3.60;3.30;;;21.10;1.00;;;;;;5031702;28;20125;-76
2022/08/07 04:19:42;;;;;;;3.60;3.30;;;21.20;1.00;;;;;;5031887;28;20033;-77
2022/08/07 04:22:07;;;;;;;5.43;3.35;;;21.30;1.00;;;;;;5031983;28;20044;-76
2022/08/07 04:24:34;;;;;;;4.13;3.42;;;21.30;1.00;;;;;;5031749;28;20382;-76
2022/08/07 04:27:01;;;;;;;3.65;3.28;;;21.10;1.00;;;;;;5031179;28;20127;-76
2022/08/07 04:29:27;;;;;;;3.65;3.13;;;21.30;1.00;;;;;;5031632;28;20067;-76
2022/08/07 04:31:54;;;;;;;3.38;3.08;;;21.20;1.00;;;;;;5031736;28;20045;-77
2022/08/07 04:34:22;;;;;;;7.90;3.22;;;21.20;1.00;;;;;;5031660;28;20375;-76
2022/08/07 04:36:47;;;;;;;4.18;3.40;;;21.20;1.00;;;;;;5031493;28;20517;-76
2022/08/07 04:39:13;;;;;;;6.80;3.20;;;21.20;1.00;;;;;;5030465;28;20112;-76
2022/08/07 04:41:39;;;;;;;3.53;3.22;;;21.00;1.00;;;;;;5031328;28;20033;-76
2022/08/07 04:44:05;;;;;;;3.22;3.03;;;21.10;1.00;;;;;;5031504;28;20018;-76
2022/08/07 04:46:30;;;;;;;3.35;3.05;;;21.10;1.00;;;;;;5034445;28;20040;-76
2022/08/07 04:49:11;;;;;;;4.18;3.17;;;21.00;1.00;;;;;;5035115;28;20029;-76
2022/08/07 04:51:49;;;;;;;3.05;2.80;;;21.00;1.00;;;;;;5035086;28;20029;-77
2022/08/07 04:54:48;;;;;;;3.97;2.97;;;20.80;1.00;;;;;;5035336;28;20049;-76
2022/08/07 04:57:44;;;;;;;3.65;2.75;;;20.90;1.00;;;;;;5034910;28;20548;-76
2022/08/07 05:00:17;;;;;;;3.25;2.80;;;20.70;1.00;;;;;;5028062;28;20033;-76
2022/08/07 05:03:01;;;;;;;2.83;2.63;;;20.70;1.00;;;;;;5034981;28;20026;-76
2022/08/07 05:05:41;;;;;;;2.92;2.70;;;20.70;1.00;;;;;;5034956;28;20108;-76
2022/08/07 05:08:27;;;;;;;3.15;2.60;;;20.80;1.00;;;;;;5034845;28;20025;-76
2022/08/07 05:11:08;;;;;;;4.25;2.80;;;20.80;1.00;;;;;;5034401;28;20044;-77
2022/08/07 05:13:48;;;;;;;3.10;2.80;;;20.50;1.00;;;;;;5034624;28;20025;-76
2022/08/07 05:16:15;;;;;;;3.53;2.60;;;20.60;1.00;;;;;;5034444;28;20040;-76
2022/08/07 05:18:52;;;;;;;4.47;2.90;;;20.60;1.00;;;;;;5034916;28;20037;-76
2022/08/07 05:21:22;;;;;;;2.95;2.72;;;20.50;1.00;;;;;;5034644;28;20489;-76
2022/08/07 05:23:56;;;;;;;3.40;2.50;;;20.50;1.00;;;;;;5034127;28;20032;-76
2022/08/07 05:26:24;;;;;;;3.78;2.65;;;20.30;1.00;;;;;;5034270;28;20037;-76
2022/08/07 05:28:56;;;;;;;2.83;2.63;;;20.40;1.00;;;;;;5034626;28;20036;-76
2022/08/07 05:31:24;;;;;;;5.32;2.60;;;20.40;1.00;;;;;;5034191;28;20053;-76
2022/08/07 05:33:51;;;;;;;2.88;2.67;;;20.30;1.00;;;;;;5034328;28;20112;-76
2022/08/07 05:36:19;;;;;;;3.67;2.40;;;20.30;1.00;;;;;;5034202;28;20036;-75
2022/08/07 05:38:46;;;;;;;4.05;3.03;;;20.30;1.00;;;;;;5034204;28;20017;-76
2022/08/07 05:41:12;;;;;;;4.25;2.78;;;20.30;1.00;;;;;;5034185;28;20029;-75
2022/08/07 05:43:39;;;;;;;3.03;2.80;;;20.30;1.00;;;;;;5033535;28;20029;-76
2022/08/07 05:46:06;;;;;;;3.83;2.85;;;20.30;1.00;;;;;;5033464;28;20021;-76
2022/08/07 05:48:32;;;;;;;3.75;2.63;;;20.30;1.00;;;;;;5033578;28;20359;-77
2022/08/07 05:51:00;;;;;;;4.55;2.72;;;20.40;1.00;;;;;;5033864;28;20029;-79
2022/08/07 05:53:26;;;;;;;4.15;2.50;;;20.50;1.00;;;;;;5033542;28;20029;-77
2022/08/07 05:55:53;;;;;;;3.95;2.92;;;20.50;1.00;;;;;;5033600;28;20033;-76
2022/08/07 05:58:22;;;;;;;3.13;2.80;;;20.30;1.00;;;;;;5034281;28;20363;-77
2022/08/07 06:00:50;;;;;;;5.10;3.00;;;20.50;1.00;;;;;;5033483;28;20064;-77
2022/08/07 06:03:18;;;;;;;3.83;3.15;;;20.80;1.00;;;;;;5033760;28;20037;-78
2022/08/07 06:05:46;;;;;;;3.22;2.92;;;20.90;1.00;;;;;;5034084;28;20029;-77
2022/08/07 06:08:13;;;;;;;3.58;2.75;;;20.90;1.00;;;;;;5033022;28;20021;-78
2022/08/07 06:10:38;;;;;;;3.33;3.00;;;20.60;1.00;;;;;;5033951;28;20034;-78
2022/08/07 06:13:04;;;;;;;4.45;3.10;;;20.60;1.00;;;;;;5032055;28;20017;-76
2022/08/07 06:15:33;;;;;;;4.47;3.22;;;20.70;1.00;;;;;;5033070;28;20490;-77
2022/08/07 06:17:59;;;;;;;6.20;3.40;;;20.90;1.00;;;;;;5033450;28;20021;-77
2022/08/07 06:20:26;;;;;;;3.13;2.92;;;20.90;1.00;;;;;;5033016;28;20402;-77
2022/08/07 06:22:53;;;;;;;3.35;3.15;;;20.90;1.00;;;;;;5032974;28;20386;-77
2022/08/07 06:25:19;;;;;;;4.68;3.30;;;20.90;1.00;;;;;;5032708;28;20025;-77
2022/08/07 06:27:45;;;;;;;5.90;3.10;;;20.90;1.00;;;;;;5033367;28;20119;-78
2022/08/07 06:30:11;;;;;;;5.07;3.40;;;21.20;1.00;;;;;;5013439;28;20018;-78
2022/08/07 06:32:36;;;;;;;3.72;3.38;;;21.00;1.00;;;;;;5013438;28;20517;-78
2022/08/07 06:35:03;;;;;;;5.90;3.67;;;21.20;1.00;;;;;;5013713;28;20057;-78
2022/08/07 06:37:28;;;;;;;4.97;3.88;;;21.20;1.00;;;;;;5012973;28;20038;-78
2022/08/07 06:39:54;;;;;;;4.65;3.33;;;21.40;1.00;;;;;;5013661;28;20025;-78
2022/08/07 06:42:36;;;;;;;3.78;3.42;;;21.30;1.00;;;;;;5013491;28;20042;-79
2022/08/07 06:45:09;;;;;;;4.15;3.75;;;21.30;1.00;;;;;;5013051;28;20140;-78
2022/08/07 06:47:35;;;;;;;4.18;3.60;;;21.30;1.00;;;;;;5013847;28;20390;-78
2022/08/07 06:50:00;;;;;;;4.30;3.72;;;21.20;1.00;;;;;;5013138;28;20034;-78
2022/08/07 06:52:33;;;;;;;4.57;3.35;;;21.20;1.00;;;;;;5012692;28;20038;-78
2022/08/07 06:55:00;;;;;;;4.28;3.50;;;21.10;1.00;;;;;;5013119;28;20026;-77
2022/08/07 06:57:28;;;;;;;4.22;3.78;;;21.10;1.00;;;;;;5013020;28;20448;-77
2022/08/07 06:59:55;;;;;;;5.28;3.88;;;21.40;1.00;;;;;;5012962;28;20041;-78
2022/08/07 07:02:24;;;;;;;4.32;3.38;;;21.50;1.00;;;;;;5011614;28;20049;-77
2022/08/07 07:04:50;;;;;;;3.92;3.60;;;21.50;1.00;;;;;;5012936;28;20145;-78
2022/08/07 07:07:15;;;;;;;3.72;3.38;;;21.50;1.00;;;;;;5012681;28;20054;-78
2022/08/07 07:09:46;;;;;;;4.40;3.35;;;21.60;1.00;;;;;;5012548;28;20030;-78
2022/08/07 07:12:21;;;;;;;5.30;3.70;;;21.60;1.00;;;;;;5013162;28;20101;-78
2022/08/07 07:14:59;;;;;;;4.20;3.60;;;21.70;1.00;;;;;;5029974;28;20033;-77
2022/08/07 07:17:32;;;;;;;3.47;3.17;;;21.90;1.00;;;;;;5032352;28;20037;-77
2022/08/07 07:20:01;;;;;;;3.75;3.45;;;21.70;1.00;;;;;;5028172;28;20429;-76
2022/08/07 07:22:28;;;;;;;3.47;3.17;;;21.70;1.00;;;;;;5012089;28;20632;-77
2022/08/07 07:24:54;;;;;;;3.95;3.15;;;21.90;1.00;;;;;;5012614;28;20018;-78
2022/08/07 07:27:23;;;;;;;3.47;3.10;;;21.90;1.00;;;;;;5030580;28;20116;-78
2022/08/07 07:29:56;;;;;;;3.65;3.35;;;22.20;1.00;;;;;;5031825;28;20029;-76
2022/08/07 07:32:24;;;;;;;4.65;3.28;;;22.00;1.00;;;;;;5032015;28;20033;-78
2022/08/07 07:34:54;;;;;;;3.38;3.08;;;22.20;1.00;;;;;;5030325;28;20029;-81
2022/08/07 07:37:22;;;;;;;3.97;3.33;;;22.30;1.00;;;;;;5030121;28;20091;-77
2022/08/07 07:39:52;;;;;;;5.30;3.60;;;22.50;1.00;;;;;;5031977;28;20026;-77
2022/08/07 07:42:20;;;;;;;5.45;3.58;;;22.50;1.00;;;;;;5031645;28;20021;-78
2022/08/07 07:44:47;;;;;;;4.55;3.42;;;22.30;1.00;;;;;;5030981;28;20045;-77
2022/08/07 07:47:15;;;;;;;4.20;3.30;;;22.40;1.00;;;;;;5032312;28;20022;-77
2022/08/07 07:49:44;;;;;;;5.82;3.47;;;22.30;1.00;;;;;;5031286;28;20072;-77
2022/08/07 07:52:11;;;;;;;6.07;3.47;;;22.20;1.00;;;;;;5032042;28;20060;-77
2022/08/07 07:54:41;;;;;;;3.72;3.35;;;22.50;1.00;;;;;;5032069;28;20033;-78
2022/08/07 07:57:07;;;;;;;4.40;3.50;;;22.50;1.00;;;;;;5012371;28;20124;-77
2022/08/07 07:59:36;;;;;;;4.05;3.47;;;22.60;1.00;;;;;;5020238;28;20072;-77
2022/08/07 08:02:04;;;;;;;3.97;3.58;;;22.50;1.00;;;;;;5031872;28;20025;-77
2022/08/07 08:04:31;;;;;;;3.63;3.33;;;22.70;1.00;;;;;;5031566;28;20107;-77
2022/08/07 08:06:58;;;;;;;4.10;3.22;;;22.80;1.00;;;;;;5031448;28;20022;-77
2022/08/07 08:09:25;;;;;;;3.90;3.53;;;22.80;1.00;;;;;;5031517;28;20030;-77
2022/08/07 08:11:53;;;;;;;3.58;3.00;;;23.10;1.00;;;;;;5031213;28;20056;-77
2022/08/07 08:14:19;;;;;;;5.95;3.90;;;22.90;1.00;;;;;;5018520;28;20014;-77
2022/08/07 08:16:45;;;;;;;3.80;3.50;;;22.90;1.00;;;;;;5025048;28;20136;-78
2022/08/07 08:19:15;;;;;;;6.57;4.00;;;22.90;1.00;;;;;;5029497;28;20029;-77
2022/08/07 08:27:23;;;;;;;3.85;3.50;;;23.30;1.00;;;;;;5035465;28;20505;-79
2022/08/07 08:29:53;;;;;;;3.92;3.50;;;23.30;1.00;;;;;;5035264;28;20037;-78
2022/08/07 08:32:22;;;;;;;5.10;3.63;;;23.20;1.00;;;;;;5034598;28;20037;-78
2022/08/07 08:34:50;;;;;;;4.10;3.80;;;23.20;1.00;;;;;;5035039;28;20021;-77
2022/08/07 08:37:18;;;;;;;5.95;3.40;;;23.40;1.00;;;;;;5023211;28;20453;-78
2022/08/07 08:39:44;;;;;;;3.80;3.50;;;23.70;1.00;;;;;;5015559;28;20022;-77
2022/08/07 08:42:27;;;;;;;4.63;3.67;;;23.60;1.00;;;;;;5015364;28;20025;-77
2022/08/07 08:45:17;;;;;;;6.28;3.80;;;23.70;1.00;;;;;;5017259;28;20562;-77
2022/08/07 08:48:22;;;;;;;3.70;3.40;;;23.70;1.00;;;;;;5034765;28;20501;-77
2022/08/07 08:50:57;;;;;;;3.83;3.53;;;23.80;1.00;;;;;;5034976;28;20037;-77
2022/08/07 08:53:38;;;;;;;4.40;4.00;;;23.70;1.00;;;;;;5034842;28;20044;-77
2022/08/07 08:56:19;;;;;;;4.30;3.90;;;23.80;1.00;;;;;;5035244;28;20036;-77
2022/08/07 08:59:01;;;;;;;4.30;3.90;;;23.80;1.00;;;;;;5035149;28;20036;-77
2022/08/07 09:01:41;;;;;;;5.05;3.90;;;23.80;1.00;;;;;;5017455;28;20022;-77
2022/08/07 09:04:18;;;;;;;4.53;4.13;;;23.70;1.00;;;;;;5014989;28;20034;-77
2022/08/07 09:07:14;;;;;;;6.30;3.80;;;23.90;1.00;;;;;;5033160;28;20414;-78
2022/08/07 09:09:55;;;;;;;4.70;4.30;;;24.00;1.00;;;;;;5034468;28;20081;-77
2022/08/07 09:12:47;;;;;;;4.15;3.70;;;24.00;1.00;;;;;;5034186;28;20057;-78
2022/08/07 09:15:53;;;;;;;4.13;3.53;;;24.20;1.00;;;;;;5034507;28;20405;-78
2022/08/07 09:18:27;;;;;;;4.47;4.07;;;24.00;1.00;;;;;;5033731;28;20034;-78
2022/08/07 09:21:22;;;;;;;5.43;3.92;;;24.20;1.00;;;;;;5033743;28;20030;-77
2022/08/07 09:23:58;;;;;;;4.55;3.70;;;24.30;1.00;;;;;;5033016;28;20080;-77
2022/08/07 09:26:38;;;;;;;4.15;3.75;;;24.20;1.00;;;;;;5031139;28;20132;-77
2022/08/07 09:29:19;;;;;;;4.90;3.55;;;24.70;1.00;;;;;;5031739;28;20014;-77
2022/08/07 09:31:55;;;;;;;4.43;4.03;;;25.10;1.00;;;;;;5032772;28;20084;-78
2022/08/07 09:34:38;;;;;;;4.95;3.70;;;24.90;1.00;;;;;;5034248;28;20036;-77
2022/08/07 09:37:12;;;;;;;3.60;3.30;;;25.30;1.00;;;;;;5033052;28;20405;-78
2022/08/07 09:39:56;;;;;;;4.20;3.80;;;25.60;1.00;;;;;;5032604;28;20029;-77
2022/08/07 09:42:48;;;;;;;3.90;3.42;;;25.70;1.00;;;;;;5033684;28;20493;-78
2022/08/07 09:45:41;;;;;;;3.70;3.40;;;25.60;1.00;;;;;;5033075;28;20018;-78
2022/08/07 09:48:45;;;;;;;3.70;3.40;;;25.50;1.00;;;;;;5025271;28;20029;-78
2022/08/07 09:51:30;;;;;;;3.80;3.42;;;25.70;1.00;;;;;;5029782;28;20033;-78
2022/08/07 09:54:00;;;;;;;4.00;3.70;;;25.50;1.00;;;;;;5033613;28;20030;-78
2022/08/07 09:56:44;;;;;;;4.22;3.83;;;25.00;1.00;;;;;;5033338;28;20135;-77
2022/08/07 09:59:24;;;;;;;4.28;3.88;;;25.10;1.00;;;;;;5032911;28;20033;-77
2022/08/07 10:02:09;;;;;;;3.80;3.40;;;25.30;1.00;;;;;;5032966;28;20113;-77
2022/08/07 10:05:01;;;;;;;4.53;4.13;;;25.60;1.00;;;;;;5032886;28;20030;-78
2022/08/07 10:07:51;;;;;;;5.13;3.75;;;26.10;1.00;;;;;;5012755;28;20140;-77
2022/08/07 10:10:32;;;;;;;4.78;3.65;;;26.10;1.00;;;;;;5025481;28;20025;-77
2022/08/07 10:13:15;;;;;;;3.70;3.40;;;26.00;1.00;;;;;;5017517;28;20269;-78
2022/08/07 10:15:57;;;;;;;4.47;3.22;;;26.20;1.00;;;;;;5020408;28;20029;-77
2022/08/07 10:18:46;;;;;;;3.65;3.42;;;26.60;1.00;;;;;;5021407;28;20026;-78
2022/08/07 10:21:50;;;;;;;3.42;3.13;;;26.40;1.00;;;;;;5022897;28;20025;-77
2022/08/07 10:24:24;;;;;;;5.40;3.60;;;26.10;1.00;;;;;;5017132;28;20345;-78
2022/08/07 10:27:24;;;;;;;3.80;3.47;;;26.10;1.00;;;;;;5016276;28;20053;-78
2022/08/07 10:30:05;;;;;;;3.78;3.47;;;25.90;1.00;;;;;;5019031;28;20409;-78
2022/08/07 10:32:49;;;;;;;3.92;3.60;;;26.10;1.00;;;;;;5015207;28;20493;-78
2022/08/07 10:35:42;;;;;;;3.63;3.33;;;26.10;1.00;;;;;;5018755;28;20026;-78
2022/08/07 10:38:36;;;;;;;3.90;3.50;;;26.10;1.00;;;;;;5023898;28;20033;-77
2022/08/07 10:41:17;;;;;;;3.67;3.38;;;26.50;1.00;;;;;;5021738;28;20049;-78
2022/08/07 10:43:52;;;;;;;4.63;3.22;;;26.30;1.00;;;;;;5022160;28;20505;-78
2022/08/07 10:46:28;;;;;;;4.00;3.60;;;26.80;1.00;;;;;;5025894;28;20029;-78
2022/08/07 10:49:18;;;;;;;4.18;3.65;;;26.90;1.00;;;;;;5021251;28;20030;-77
2022/08/07 10:52:17;;;;;;;3.50;3.30;;;27.00;1.00;;;;;;5013467;28;20026;-78
2022/08/07 10:55:00;;;;;;;3.55;3.25;;;27.20;1.00;;;;;;5026689;28;20571;-78
2022/08/07 10:58:03;;;;;;;4.00;3.60;;;27.50;1.00;;;;;;5041349;28;20204;-78
2022/08/07 11:00:42;;;;;;;3.20;2.95;;;27.30;1.00;;;;;;5024212;28;20445;-78
2022/08/07 11:03:18;;;;;;;3.65;3.10;;;27.80;1.00;;;;;;5013050;28;20046;-79
2022/08/07 11:05:53;;;;;;;3.83;3.35;;;27.70;1.00;;;;;;5025349;28;20032;-79
2022/08/07 11:08:38;;;;;;;3.95;3.65;;;28.50;1.00;;;;;;5032289;28;20025;-78
2022/08/07 11:11:03;;;;;;;3.60;3.30;;;30.90;1.00;;;;;;5032384;28;20490;-78
2022/08/07 11:13:48;;;;;;;3.65;3.10;;;34.00;1.00;;;;;;5031813;28;20059;-78
2022/08/07 11:16:16;;;;;;;3.70;3.40;;;35.00;1.00;;;;;;5032182;28;20504;-78
2022/08/07 11:18:51;;;;;;;3.30;3.05;;;36.90;1.00;;;;;;5032010;28;20037;-79
2022/08/07 11:21:53;;;;;;;4.32;3.10;;;38.00;1.00;;;;;;5031502;28;20040;-78
2022/08/07 11:24:32;;;;;;;4.32;3.25;;;37.80;1.00;;;;;;4971476;28;20113;-78
2022/08/07 11:27:22;;;;;;;3.28;2.97;;;39.20;1.00;;;;;;4970616;28;20100;-78
2022/08/07 11:29:58;;;;;;;5.03;3.20;;;38.90;1.00;;;;;;4970981;28;20138;-78
2022/08/07 11:32:44;;;;;;;4.45;3.00;;;39.70;1.00;;;;;;4953079;28;20041;-78
2022/08/07 11:35:35;;;;;;;3.40;3.10;;;39.30;1.00;;;;;;4952103;28;20047;-78
2022/08/07 11:38:12;;;;;;;3.05;2.80;;;39.40;1.00;;;;;;4952930;28;20036;-79
2022/08/07 11:40:47;;;;;;;2.92;2.65;;;38.80;1.00;;;;;;4957320;28;20034;-78
2022/08/07 11:43:24;;;;;;;3.33;3.00;;;39.20;1.00;;;;;;4952245;29;20027;-79
2022/08/07 11:46:13;;;;;;;3.70;3.10;;;40.90;1.00;;;;;;4951656;29;20070;-79
2022/08/07 11:49:19;;;;;;;3.15;2.92;;;41.60;1.00;;;;;;4955887;28;20043;-79
2022/08/07 11:52:09;;;;;;;4.82;2.90;;;41.90;1.00;;;;;;4951830;29;20035;-80
2022/08/07 11:54:40;;;;;;;3.45;2.80;;;42.40;1.00;;;;;;4953524;28;20035;-79
2022/08/07 11:57:11;;;;;;;3.95;2.90;;;42.00;1.00;;;;;;4960103;28;20110;-79
2022/08/07 11:59:59;;;;;;;3.40;3.10;;;42.30;1.00;;;;;;4975063;28;20555;-79
2022/08/07 12:02:41;;;;;;;3.63;3.00;;;42.30;1.00;;;;;;5023093;28;20394;-79
2022/08/07 12:05:18;;;;;;;3.33;3.00;;;43.00;1.00;;;;;;5035690;28;20087;-80
2022/08/07 12:08:00;;;;;;;4.38;2.72;;;43.90;1.00;;;;;;5034609;28;20056;-80
2022/08/07 12:10:39;;;;;;;3.15;2.85;;;44.10;1.00;;;;;;5018275;28;20021;-81
2022/08/07 12:13:21;;;;;;;2.90;2.70;;;43.40;1.00;;;;;;5035680;28;20509;-79
2022/08/07 12:15:52;;;;;;;2.65;2.45;;;43.90;1.00;;;;;;5034105;28;20048;-80
2022/08/07 12:18:46;;;;;;;3.70;2.97;;;45.00;1.00;;;;;;5022388;28;20046;-80
2022/08/07 12:21:33;;;;;;;6.68;5.45;;;43.70;1.00;;;;;;5010632;28;20490;-80
2022/08/07 12:24:13;;;;;;;3.22;2.85;;;41.90;1.00;;;;;;5020849;28;20029;-79
2022/08/07 12:26:46;;;;;;;3.00;2.80;;;43.90;1.00;;;;;;5015362;28;20474;-80
2022/08/07 12:29:18;;;;;;;3.63;2.67;;;43.60;1.00;;;;;;5027416;28;20099;-80
2022/08/07 12:32:05;;;;;;;3.10;2.80;;;44.50;1.00;;;;;;5035337;28;20061;-80
2022/08/07 12:34:35;;;;;;;2.72;2.53;;;43.60;1.00;;;;;;5035345;28;20029;-80
2022/08/07 12:37:02;;;;;;;2.92;2.60;;;44.50;1.00;;;;;;5035055;28;20124;-80
2022/08/07 12:39:31;;;;;;;2.90;2.60;;;44.00;1.00;;;;;;5034917;28;20401;-80
2022/08/07 12:41:59;;;;;;;2.70;2.50;;;44.20;1.00;;;;;;5035223;28;20512;-80
2022/08/07 12:44:28;;;;;;;4.45;2.80;;;44.70;1.00;;;;;;5035053;28;20375;-80
2022/08/07 12:47:32;;;;;;;3.03;2.83;;;45.50;1.00;;;;;;5035211;28;20025;-80
2022/08/07 12:50:20;;;;;;;4.13;3.20;;;45.20;1.00;;;;;;5034240;28;20041;-80
2022/08/07 12:53:06;;;;;;;2.80;2.60;;;43.20;1.00;;;;;;5035259;28;20029;-80
2022/08/07 12:55:39;;;;;;;3.22;2.90;;;43.00;1.00;;;;;;5034585;28;20076;-81
2022/08/07 12:58:08;;;;;;;3.38;3.10;;;42.20;1.00;;;;;;5034741;28;20025;-80
2022/08/07 13:00:59;;;;;;;2.97;2.67;;;42.70;1.00;;;;;;5034240;28;20080;-80
2022/08/07 13:03:59;;;;;;;4.07;3.00;;;42.50;1.00;;;;;;5034331;28;20508;-80
2022/08/07 13:06:35;;;;;;;2.70;2.50;;;42.70;1.00;;;;;;5033889;28;20037;-80
2022/08/07 13:09:21;;;;;;;3.10;2.80;;;42.50;1.00;;;;;;5030336;28;20033;-80
2022/08/07 13:12:10;;;;;;;3.00;2.80;;;41.50;1.00;;;;;;5034339;28;20485;-80
2022/08/07 13:14:47;;;;;;;3.28;2.90;;;40.40;1.00;;;;;;5034803;28;20037;-80
2022/08/07 13:17:25;;;;;;;3.60;3.30;;;40.40;1.00;;;;;;5033041;28;20478;-80
2022/08/07 13:20:20;;;;;;;3.00;2.72;;;40.10;1.00;;;;;;5021446;28;20021;-80
2022/08/07 13:23:00;;;;;;;3.45;2.90;;;40.10;1.00;;;;;;5033999;28;20029;-80
2022/08/07 13:25:38;;;;;;;3.65;2.80;;;39.40;1.00;;;;;;5032940;28;20408;-80
2022/08/07 13:28:09;;;;;;;2.83;2.60;;;39.50;1.00;;;;;;5033796;28;20053;-79
2022/08/07 13:30:39;;;;;;;3.10;2.90;;;40.40;1.00;;;;;;5034507;28;20086;-80
2022/08/07 13:33:17;;;;;;;3.33;2.72;;;40.70;1.00;;;;;;5033187;28;20448;-80
2022/08/07 13:35:48;;;;;;;3.40;3.10;;;41.00;1.00;;;;;;5033733;28;20029;-80